Time;durP1;ratioP1;P1;durP2;ratioP2;P2;SDS_P1;SDS_P2;PMS_P1;PMS_P2;Temp;Humidity;BMP_temperature;BMP_pressure;BME280_temperature;BME280_humidity;BME280_pressure;Samples;Min_cycle;Max_cycle;Signal;HPM_P1;HPM_P2
2021/08/11 00:01:34;;;;;;;9.27;6.10;;;;;;;13.79;84.44;101838.38;5058112;28;20091;-73
2021/08/11 00:03:59;;;;;;;9.60;5.80;;;;;;;13.84;84.60;101839.03;5062022;28;20033;-73
2021/08/11 00:06:24;;;;;;;5.80;5.18;;;;;;;13.93;83.76;101850.97;5055191;28;20112;-73
2021/08/11 00:08:50;;;;;;;10.27;5.38;;;;;;;13.80;83.80;101848.81;5045210;28;20020;-73
2021/08/11 00:11:15;;;;;;;7.97;5.28;;;;;;;13.72;84.39;101839.53;5067182;28;20040;-73
2021/08/11 00:13:41;;;;;;;12.52;6.55;;;;;;;13.81;84.74;101841.78;5065018;28;20056;-73
2021/08/11 00:16:06;;;;;;;9.13;5.85;;;;;;;13.74;84.77;101838.53;5081466;28;20040;-73
2021/08/11 00:18:32;;;;;;;7.45;6.60;;;;;;;13.76;84.88;101833.22;5045344;28;20052;-73
2021/08/11 00:20:57;;;;;;;13.13;7.05;;;;;;;14.02;84.31;101834.81;5062750;28;20324;-73
2021/08/11 00:23:25;;;;;;;15.43;7.75;;;;;;;14.00;84.76;101834.03;5071923;28;20040;-73
2021/08/11 00:25:54;;;;;;;14.40;8.40;;;;;;;14.15;84.28;101828.16;5068319;28;20099;-73
2021/08/11 00:28:22;;;;;;;12.65;7.40;;;;;;;13.92;85.18;101836.97;5090675;28;20059;-73
2021/08/11 00:30:48;;;;;;;10.18;7.60;;;;;;;13.87;85.10;101828.38;5075479;28;20153;-73
2021/08/11 00:33:13;;;;;;;10.00;6.70;;;;;;;13.77;85.35;101834.91;5047000;28;20339;-73
2021/08/11 00:35:39;;;;;;;8.68;6.38;;;;;;;13.69;85.30;101821.19;5083358;28;20101;-73
2021/08/11 00:38:04;;;;;;;12.85;6.88;;;;;;;13.72;85.81;101834.25;5063620;28;20032;-72
2021/08/11 00:40:30;;;;;;;9.05;7.70;;;;;;;13.79;85.41;101833.09;5082693;28;20040;-72
2021/08/11 00:42:56;;;;;;;11.75;6.72;;;;;;;13.72;85.47;101834.25;5064680;28;20032;-72
2021/08/11 00:45:22;;;;;;;10.27;7.55;;;;;;;13.58;85.90;101832.97;5082955;28;20038;-72
2021/08/11 00:47:47;;;;;;;14.80;8.43;;;;;;;13.60;86.07;101831.13;5083359;28;20028;-72
2021/08/11 00:50:12;;;;;;;12.68;8.05;;;;;;;13.70;86.56;101833.41;5069306;28;20246;-73
2021/08/11 00:52:38;;;;;;;14.38;9.32;;;;;;;13.68;86.40;101830.88;5051054;28;20020;-73
2021/08/11 00:55:04;;;;;;;12.40;8.63;;;;;;;13.82;86.47;101835.59;5073927;28;20091;-73
2021/08/11 00:57:29;;;;;;;15.98;8.82;;;;;;;13.84;86.11;101828.50;5051022;28;20032;-72
2021/08/11 00:59:56;;;;;;;13.43;10.27;;;;;;;13.88;86.54;101838.00;5064308;28;20034;-72
2021/08/11 01:02:22;;;;;;;14.55;10.60;;;;;;;13.97;86.36;101827.13;5064513;28;20035;-72
2021/08/11 01:04:47;;;;;;;17.80;11.75;;;;;;;14.09;86.04;101832.81;5084261;28;20054;-72
2021/08/11 01:07:14;;;;;;;24.00;13.27;;;;;;;14.05;86.70;101829.44;5048738;28;20040;-72
2021/08/11 01:09:39;;;;;;;17.40;11.75;;;;;;;14.17;86.10;101828.97;5065751;28;20047;-72
2021/08/11 01:12:05;;;;;;;18.35;11.18;;;;;;;14.31;85.53;101830.19;5047198;28;20287;-72
2021/08/11 01:14:32;;;;;;;17.77;11.20;;;;;;;14.18;85.84;101832.44;5063238;28;20256;-72
2021/08/11 01:16:57;;;;;;;18.25;11.15;;;;;;;14.24;85.91;101832.19;5062918;28;20090;-72
2021/08/11 01:19:23;;;;;;;14.77;10.20;;;;;;;14.22;85.43;101828.75;5074306;28;20079;-72
2021/08/11 01:22:10;;;;;;;18.02;10.75;;;;;;;14.32;85.04;101835.38;5047130;28;20196;-72
2021/08/11 01:24:44;;;;;;;17.23;10.82;;;;;;;14.32;85.18;101827.47;5068684;28;20099;-72
2021/08/11 01:27:39;;;;;;;19.88;11.75;;;;;;;14.46;85.09;101818.16;5065493;28;20082;-72
2021/08/11 01:30:06;;;;;;;25.40;11.52;;;;;;;14.55;84.87;101815.13;5042007;28;20316;-72
2021/08/11 01:32:56;;;;;;;18.00;11.25;;;;;;;14.63;84.21;101826.25;5063360;28;20121;-73
2021/08/11 01:35:24;;;;;;;15.68;11.18;;;;;;;14.56;84.84;101825.59;5075944;28;20028;-73
2021/08/11 01:37:51;;;;;;;21.50;12.10;;;;;;;14.55;84.72;101823.03;5059029;28;20032;-73
2021/08/11 01:40:18;;;;;;;22.58;12.65;;;;;;;14.42;85.63;101824.47;5066335;28;20039;-73
2021/08/11 01:42:44;;;;;;;20.02;12.40;;;;;;;14.37;86.09;101822.00;5063276;28;20214;-73
2021/08/11 01:45:13;;;;;;;21.50;12.75;;;;;;;14.33;86.30;101829.19;5063010;28;20024;-73
2021/08/11 01:47:39;;;;;;;;;;;;;;;14.29;86.91;101832.88;5069735;28;20032;-73
2021/08/11 01:50:07;;;;;;;22.50;12.75;;;;;;;14.34;86.61;101823.00;5046945;28;20217;-73
2021/08/11 01:52:34;;;;;;;21.48;12.65;;;;;;;14.35;86.75;101830.00;5062355;28;20344;-73
2021/08/11 01:54:59;;;;;;;19.50;12.50;;;;;;;14.43;86.69;101834.09;5066844;28;20024;-72
2021/08/11 01:57:25;;;;;;;22.13;13.10;;;;;;;14.47;86.87;101838.31;5048603;28;20086;-72
2021/08/11 01:59:50;;;;;;;22.10;12.70;;;;;;;14.30;87.26;101833.75;5072410;28;20059;-72
2021/08/11 02:02:16;;;;;;;20.88;12.63;;;;;;;14.25;87.09;101833.91;5054842;28;20388;-72
2021/08/11 02:04:41;;;;;;;22.20;12.07;;;;;;;14.29;86.88;101839.91;5076860;28;20036;-72
2021/08/11 02:07:07;;;;;;;25.25;13.40;;;;;;;14.12;87.58;101841.44;5063660;28;20031;-72
2021/08/11 02:09:32;;;;;;;20.92;12.23;;;;;;;14.37;87.05;101837.81;5080138;28;20307;-72
2021/08/11 02:11:58;;;;;;;19.90;11.63;;;;;;;14.38;86.82;101831.63;5052867;28;20077;-72
2021/08/11 02:14:23;;;;;;;21.48;11.50;;;;;;;14.33;87.11;101838.88;5065203;28;20034;-73
2021/08/11 02:16:49;;;;;;;26.17;11.82;;;;;;;14.44;86.52;101828.75;5081282;28;20240;-73
2021/08/11 02:19:14;;;;;;;19.55;11.30;;;;;;;14.36;86.68;101836.13;5092309;28;20061;-72
2021/08/11 02:21:40;;;;;;;21.20;11.35;;;;;;;14.42;86.84;101835.00;5101171;28;20257;-73
2021/08/11 02:24:06;;;;;;;18.30;11.38;;;;;;;14.35;87.42;101826.47;5064116;28;20323;-73
2021/08/11 02:26:34;;;;;;;22.88;11.60;;;;;;;14.34;87.00;101836.19;5081771;28;20051;-73
2021/08/11 02:29:17;;;;;;;23.15;12.23;;;;;;;14.23;87.52;101835.75;5083734;28;20054;-72
2021/08/11 02:31:46;;;;;;;26.98;12.30;;;;;;;14.29;87.36;101832.88;5064117;28;20230;-72
2021/08/11 02:34:32;;;;;;;;;;;;;;;14.25;87.64;101835.72;5050928;28;20047;-72
2021/08/11 02:36:59;;;;;;;22.23;11.77;;;;;;;14.17;87.56;101825.44;5082427;28;19939;-72
2021/08/11 02:39:28;;;;;;;26.15;13.55;;;;;;;14.22;87.58;101828.75;5063057;28;20040;-72
2021/08/11 02:41:58;;;;;;;19.23;12.65;;;;;;;14.24;87.55;101829.56;5062538;28;20060;-72
2021/08/11 02:44:27;;;;;;;24.02;13.35;;;;;;;14.32;87.57;101827.47;5051655;28;20035;-72
2021/08/11 02:46:53;;;;;;;23.67;12.23;;;;;;;14.36;87.22;101829.06;5048524;28;20047;-72
2021/08/11 02:49:25;;;;;;;24.02;12.90;;;;;;;14.30;87.59;101828.47;5065134;28;20032;-72
2021/08/11 02:51:51;;;;;;;23.83;13.68;;;;;;;14.32;87.26;101830.13;5045814;28;20024;-72
2021/08/11 02:54:16;;;;;;;24.00;13.23;;;;;;;14.22;87.82;101823.50;5080108;28;20066;-72
2021/08/11 02:56:42;;;;;;;26.23;14.15;;;;;;;14.17;87.96;101823.69;5059770;28;20038;-72
2021/08/11 02:59:08;;;;;;;27.85;15.13;;;;;;;14.30;87.57;101824.06;5060316;28;20103;-72
2021/08/11 03:01:33;;;;;;;26.70;14.35;;;;;;;14.25;88.18;101818.13;5065706;28;20020;-72
2021/08/11 03:03:59;;;;;;;26.50;14.52;;;;;;;14.30;88.04;101823.22;5076925;28;20028;-72
2021/08/11 03:06:24;;;;;;;23.02;14.32;;;;;;;14.30;87.95;101823.22;5049299;28;20055;-72
2021/08/11 03:08:50;;;;;;;26.85;13.27;;;;;;;14.37;87.62;101822.00;5037524;28;20193;-72
2021/08/11 03:11:16;;;;;;;21.40;12.80;;;;;;;14.61;86.13;101814.91;5050094;28;20028;-72
2021/08/11 03:13:44;;;;;;;27.48;13.57;;;;;;;14.44;87.28;101812.09;5049790;28;20087;-72
2021/08/11 03:16:10;;;;;;;28.00;14.10;;;;;;;14.53;86.97;101814.34;5050402;28;20044;-72
2021/08/11 03:18:36;;;;;;;21.38;12.95;;;;;;;14.42;86.92;101824.47;5076100;28;20297;-72
2021/08/11 03:21:01;;;;;;;20.55;12.60;;;;;;;14.45;87.07;101819.09;5084329;28;20204;-72
2021/08/11 03:23:26;;;;;;;24.83;13.50;;;;;;;14.42;87.45;101814.78;5057763;28;20036;-72
2021/08/11 03:25:52;;;;;;;24.67;13.82;;;;;;;14.33;87.45;101818.63;5080721;28;20042;-72
2021/08/11 03:28:17;;;;;;;28.83;13.70;;;;;;;14.30;87.94;101821.41;5093560;28;20028;-72
2021/08/11 03:30:43;;;;;;;23.27;13.73;;;;;;;14.37;87.42;101817.63;5087553;28;20335;-72
2021/08/11 03:33:08;;;;;;;24.73;13.43;;;;;;;14.32;87.78;101819.56;5083967;28;20032;-72
2021/08/11 03:35:34;;;;;;;24.92;13.38;;;;;;;14.24;88.00;101826.06;5067811;28;20042;-72
2021/08/11 03:37:59;;;;;;;25.17;14.05;;;;;;;14.43;87.46;101828.84;5067987;28;20036;-72
2021/08/11 03:40:25;;;;;;;29.27;14.73;;;;;;;14.31;87.60;101831.03;5103108;28;20028;-72
2021/08/11 03:42:50;;;;;;;30.08;15.20;;;;;;;14.20;88.27;101835.88;5102199;28;20324;-72
2021/08/11 03:45:16;;;;;;;30.25;14.75;;;;;;;14.26;87.83;101835.66;5084857;28;20076;-72
2021/08/11 03:47:42;;;;;;;25.48;14.82;;;;;;;14.37;87.62;101841.34;5100132;28;20074;-72
2021/08/11 03:50:09;;;;;;;31.63;16.42;;;;;;;14.24;88.29;101840.09;5062454;28;20023;-72
2021/08/11 03:52:35;;;;;;;29.90;16.27;;;;;;;14.22;88.06;101844.56;5101207;28;20040;-72
2021/08/11 03:55:00;;;;;;;38.55;16.27;;;;;;;14.16;88.38;101842.19;5081839;28;20044;-72
2021/08/11 03:57:26;;;;;;;32.80;16.80;;;;;;;14.05;88.49;101839.13;5083178;28;20039;-72
2021/08/11 03:59:51;;;;;;;36.50;17.90;;;;;;;14.13;88.79;101844.94;5103360;28;20373;-72
2021/08/11 04:02:16;;;;;;;34.60;16.73;;;;;;;14.22;88.88;101839.31;5064244;28;20024;-72
2021/08/11 04:04:42;;;;;;;31.38;16.38;;;;;;;14.20;88.44;101846.41;5100367;28;20044;-72
2021/08/11 04:07:07;;;;;;;33.55;16.45;;;;;;;14.27;87.96;101850.50;5083017;28;20066;-72
2021/08/11 04:09:33;;;;;;;32.53;16.70;;;;;;;14.20;87.71;101847.25;5081210;28;20036;-72
2021/08/11 04:11:58;;;;;;;39.55;17.80;;;;;;;14.18;88.18;101854.38;5083133;28;20036;-72
2021/08/11 04:14:23;;;;;;;33.75;16.98;;;;;;;14.18;88.25;101845.63;5098633;28;20038;-72
2021/08/11 04:16:49;;;;;;;31.77;16.10;;;;;;;14.14;88.35;101849.31;5082057;28;20219;-72
2021/08/11 04:19:14;;;;;;;28.13;17.00;;;;;;;14.26;87.58;101848.81;5067292;28;20028;-72
2021/08/11 04:21:40;;;;;;;27.80;16.10;;;;;;;14.24;87.37;101850.63;5080762;28;20051;-72
2021/08/11 04:24:05;;;;;;;33.45;16.25;;;;;;;14.15;87.88;101851.00;5074913;28;20047;-72
2021/08/11 04:26:30;;;;;;;27.50;16.45;;;;;;;14.26;87.46;101848.81;5098372;28;20942;-72
2021/08/11 04:28:56;;;;;;;21.30;14.48;;;;;;;14.27;87.59;101852.31;5069794;28;20028;-72
2021/08/11 04:31:21;;;;;;;23.08;14.50;;;;;;;14.32;86.57;101848.56;5080156;28;20355;-72
2021/08/11 04:33:47;;;;;;;23.63;15.95;;;;;;;14.34;87.04;101849.34;5046019;28;20024;-72
2021/08/11 04:36:12;;;;;;;28.77;14.80;;;;;;;14.43;86.70;101848.13;5065947;28;20256;-72
2021/08/11 04:38:37;;;;;;;28.17;15.63;;;;;;;14.50;86.38;101844.31;5072413;28;20315;-72
2021/08/11 04:41:03;;;;;;;25.15;16.15;;;;;;;14.44;86.87;101847.19;5063324;28;20284;-72
2021/08/11 04:43:28;;;;;;;32.65;16.55;;;;;;;15.00;84.69;101847.56;5081733;28;20213;-72
2021/08/11 04:45:54;;;;;;;23.00;14.90;;;;;;;15.67;83.18;101835.78;5061784;28;20058;-72
2021/08/11 04:48:19;;;;;;;24.35;14.68;;;;;;;16.19;81.45;101843.03;5083406;28;20034;-72
2021/08/11 04:50:44;;;;;;;23.52;13.40;;;;;;;16.56;80.03;101841.25;5100272;28;20296;-72
2021/08/11 04:53:10;;;;;;;17.63;12.27;;;;;;;16.27;78.96;101838.25;5070164;28;20020;-72
2021/08/11 04:55:36;;;;;;;21.83;12.40;;;;;;;15.77;82.42;101852.94;5058794;28;20040;-73
2021/08/11 04:58:02;;;;;;;20.50;12.85;;;;;;;15.33;83.84;101842.56;5100264;28;20032;-73
2021/08/11 05:00:27;;;;;;;26.08;13.60;;;;;;;16.37;79.80;101846.56;5079978;28;20046;-73
2021/08/11 05:02:52;;;;;;;21.30;12.70;;;;;;;17.13;78.31;101844.50;5080276;28;20324;-73
2021/08/11 05:05:18;;;;;;;21.67;12.95;;;;;;;17.55;76.21;101844.94;5065880;28;20038;-73
2021/08/11 05:07:43;;;;;;;14.93;10.48;;;;;;;18.02;73.58;101854.75;5071607;28;20262;-73
2021/08/11 05:10:10;;;;;;;11.50;6.68;;;;;;;18.78;69.20;101854.78;5079877;28;20040;-73
2021/08/11 05:12:35;;;;;;;16.75;9.77;;;;;;;18.66;71.84;101858.16;5070126;28;20316;-72
2021/08/11 05:15:03;;;;;;;6.22;3.00;;;;;;;20.20;60.17;101864.69;5048419;28;20048;-72
2021/08/11 05:17:29;;;;;;;9.07;4.28;;;;;;;20.65;58.65;101853.78;5080148;28;20051;-72
2021/08/11 05:19:54;;;;;;;7.70;3.25;;;;;;;20.69;58.46;101860.63;5099755;28;20044;-72
2021/08/11 05:22:20;;;;;;;4.85;3.15;;;;;;;20.86;57.95;101859.47;5064219;28;20039;-72
2021/08/11 05:24:46;;;;;;;7.60;4.03;;;;;;;20.26;59.23;101864.25;5040852;28;20359;-72
2021/08/11 05:27:12;;;;;;;6.55;2.65;;;;;;;20.25;59.77;101867.91;5058860;28;20036;-72
2021/08/11 05:29:39;;;;;;;7.78;3.20;;;;;;;20.84;58.03;101861.38;5066730;28;20071;-72
2021/08/11 05:32:05;;;;;;;5.55;2.85;;;;;;;20.96;57.35;101873.84;5057540;28;20044;-72
2021/08/11 05:34:30;;;;;;;6.55;2.88;;;;;;;20.72;58.24;101873.72;5057314;28;20045;-72
2021/08/11 05:36:56;;;;;;;7.40;3.03;;;;;;;20.47;58.97;101877.13;5061319;28;20029;-72
2021/08/11 05:39:21;;;;;;;3.15;2.45;;;;;;;20.38;59.55;101883.06;5058627;28;20263;-72
2021/08/11 05:41:46;;;;;;;4.80;3.05;;;;;;;20.35;59.35;101885.91;5075786;28;20331;-72
2021/08/11 05:44:12;;;;;;;6.03;2.47;;;;;;;20.53;59.01;101885.53;5073026;28;20056;-73
2021/08/11 05:46:37;;;;;;;4.03;2.50;;;;;;;21.04;57.51;101890.16;5074250;28;20239;-73
2021/08/11 05:49:04;;;;;;;6.32;2.58;;;;;;;21.32;56.82;101884.72;5059118;28;20029;-73
2021/08/11 05:51:33;;;;;;;8.23;5.90;;;;;;;21.35;56.75;101882.69;5041421;28;20033;-73
2021/08/11 05:54:00;;;;;;;8.57;3.08;;;;;;;21.37;57.04;101895.91;5057754;28;20040;-74
2021/08/11 05:56:25;;;;;;;5.10;4.15;;;;;;;21.22;57.01;101901.34;5070229;28;20040;-72
2021/08/11 05:58:51;;;;;;;7.80;3.22;;;;;;;21.33;56.68;101894.44;5078224;28;20047;-72
2021/08/11 06:01:16;;;;;;;8.82;2.92;;;;;;;21.40;56.96;101898.38;5076895;28;20074;-72
2021/08/11 06:03:42;;;;;;;5.13;2.53;;;;;;;21.44;56.33;101906.03;5070085;28;20063;-71
2021/08/11 06:06:07;;;;;;;3.42;2.42;;;;;;;21.54;56.02;101898.31;5059034;28;20033;-72
2021/08/11 06:08:34;;;;;;;6.60;2.67;;;;;;;21.54;56.10;101903.63;5045094;28;20280;-72
2021/08/11 06:10:59;;;;;;;7.00;4.10;;;;;;;21.75;55.81;101903.06;5076907;28;20036;-71
2021/08/11 06:13:24;;;;;;;5.32;2.90;;;;;;;21.84;55.33;101905.06;5078608;28;20029;-72
2021/08/11 06:15:50;;;;;;;5.15;3.03;;;;;;;21.89;55.44;101910.09;5080872;28;20040;-74
2021/08/11 06:18:15;;;;;;;3.05;2.75;;;;;;;22.03;54.73;101913.47;5077089;28;20034;-72
2021/08/11 06:20:41;;;;;;;13.20;9.20;;;;;;;22.36;57.67;101919.16;5073113;28;20070;-74
2021/08/11 06:23:06;;;;;;;9.73;5.95;;;;;;;22.51;56.91;101918.00;5059560;28;20047;-74
2021/08/11 06:25:32;;;;;;;8.50;7.03;;;;;;;22.58;56.57;101921.06;5057395;28;20076;-74
2021/08/11 06:27:57;;;;;;;5.72;2.80;;;;;;;22.50;53.22;101913.63;5059767;28;20036;-72
2021/08/11 06:30:23;;;;;;;5.57;3.15;;;;;;;22.27;54.30;101920.66;5059026;28;20033;-72
2021/08/11 06:32:48;;;;;;;4.38;2.72;;;;;;;22.24;54.02;101916.34;5047479;28;20052;-72
2021/08/11 06:35:13;;;;;;;10.40;4.00;;;;;;;22.50;54.58;101923.44;5041555;28;20086;-72
2021/08/11 06:37:46;;;;;;;5.32;2.78;;;;;;;22.70;52.93;101921.97;5070345;28;20313;-72
2021/08/11 06:40:12;;;;;;;3.58;2.63;;;;;;;22.49;53.65;101924.44;5076061;28;20056;-72
2021/08/11 06:42:37;;;;;;;6.80;3.17;;;;;;;22.62;53.17;101920.72;5044357;28;20167;-72
2021/08/11 06:45:03;;;;;;;10.35;3.80;;;;;;;22.70;55.01;101921.97;5041242;28;20036;-72
2021/08/11 06:47:29;;;;;;;12.68;9.10;;;;;;;22.71;56.19;101913.84;5066597;28;20032;-72
2021/08/11 06:49:54;;;;;;;9.45;3.90;;;;;;;22.58;53.11;101918.41;5069941;28;20035;-72
2021/08/11 06:52:19;;;;;;;5.32;3.08;;;;;;;22.70;52.97;101920.16;5068429;28;20070;-73
2021/08/11 06:54:45;;;;;;;18.08;7.53;;;;;;;22.75;53.10;101917.97;5067167;28;20393;-72
2021/08/11 06:57:10;;;;;;;8.77;4.28;;;;;;;22.69;53.33;101922.94;5068179;28;20029;-72
2021/08/11 06:59:36;;;;;;;12.50;3.63;;;;;;;22.88;52.57;101920.56;5047461;28;20013;-73
2021/08/11 07:02:01;;;;;;;6.97;3.67;;;;;;;22.93;54.59;101937.09;5064950;28;20025;-73
2021/08/11 07:04:26;;;;;;;14.23;8.57;;;;;;;23.32;56.51;101929.72;5067009;28;20051;-73
2021/08/11 07:06:54;;;;;;;11.85;5.47;;;;;;;23.29;51.54;101926.44;5071969;28;20409;-73
2021/08/11 07:09:22;;;;;;;5.53;3.03;;;;;;;22.94;52.15;101932.59;5068701;28;20047;-73
2021/08/11 07:11:47;;;;;;;11.37;7.13;;;;;;;23.20;54.15;101919.97;5069498;28;20560;-73
2021/08/11 07:14:13;;;;;;;15.27;9.52;;;;;;;22.87;53.82;101918.03;5068788;28;20032;-72
2021/08/11 07:16:38;;;;;;;11.80;6.30;;;;;;;23.17;54.67;101930.88;5065447;28;20060;-73
2021/08/11 07:19:04;;;;;;;16.27;8.27;;;;;;;23.91;51.36;101917.09;5068073;28;20052;-73
2021/08/11 07:21:29;;;;;;;18.50;8.82;;;;;;;23.66;51.36;101920.84;5061347;28;20274;-72
2021/08/11 07:23:55;;;;;;;14.07;8.80;;;;;;;23.82;50.83;101924.03;5072787;28;20070;-73
2021/08/11 07:26:20;;;;;;;17.48;8.50;;;;;;;24.23;49.53;101925.22;5070578;28;20213;-73
2021/08/11 07:28:46;;;;;;;6.60;3.35;;;;;;;24.00;49.91;101920.88;5069877;28;20278;-73
2021/08/11 07:31:11;;;;;;;12.43;6.90;;;;;;;24.18;50.33;101932.75;5066167;28;20036;-73
2021/08/11 07:33:37;;;;;;;11.48;5.40;;;;;;;23.37;51.74;101924.84;5072334;28;20028;-74
2021/08/11 07:36:02;;;;;;;13.25;4.30;;;;;;;23.18;52.99;101933.44;5061179;28;20046;-74
2021/08/11 07:38:28;;;;;;;14.55;4.28;;;;;;;23.06;53.56;101933.53;5075934;28;20036;-75
2021/08/11 07:40:53;;;;;;;18.45;4.78;;;;;;;23.06;54.27;101934.38;5093937;28;20035;-74
2021/08/11 07:43:19;;;;;;;16.73;8.45;;;;;;;23.40;53.46;101931.78;5068903;28;20044;-74
2021/08/11 07:45:44;;;;;;;13.93;5.18;;;;;;;23.01;53.91;101939.19;5078976;28;20205;-74
2021/08/11 07:48:09;;;;;;;16.92;6.07;;;;;;;22.93;54.45;101938.94;5097793;28;20039;-74
2021/08/11 07:50:37;;;;;;;21.35;5.57;;;;;;;22.76;54.91;101945.56;5090351;28;20020;-74
2021/08/11 07:53:02;;;;;;;12.13;6.63;;;;;;;22.67;55.10;101946.25;5062877;28;20043;-74
2021/08/11 07:55:28;;;;;;;11.80;6.45;;;;;;;23.02;55.30;101948.06;5076397;28;20048;-74
2021/08/11 07:57:53;;;;;;;8.43;5.20;;;;;;;23.16;53.83;101943.41;5088683;28;20336;-74
2021/08/11 08:00:20;;;;;;;12.23;6.68;;;;;;;23.52;53.68;101930.81;5074286;28;20328;-74
2021/08/11 08:02:46;;;;;;;8.68;4.75;;;;;;;23.41;54.86;101937.97;5066214;28;20036;-74
2021/08/11 08:05:11;;;;;;;12.88;5.22;;;;;;;22.93;54.85;101930.91;5066057;28;20061;-74
2021/08/11 08:07:37;;;;;;;13.88;7.20;;;;;;;23.06;54.81;101939.72;5086836;28;20049;-74
2021/08/11 08:10:03;;;;;;;9.32;4.68;;;;;;;22.59;55.48;101938.78;5096319;28;20419;-74
2021/08/11 08:12:29;;;;;;;12.13;6.07;;;;;;;22.71;55.29;101945.03;5050262;28;20036;-74
2021/08/11 08:14:54;;;;;;;14.18;5.70;;;;;;;22.97;54.67;101937.72;5080215;28;20043;-74
2021/08/11 08:17:19;;;;;;;12.95;5.78;;;;;;;23.05;54.04;101946.03;5079784;28;20028;-74
2021/08/11 08:19:45;;;;;;;1728.78;198.77;;;;;;;23.07;53.87;101944.09;5065798;28;20040;-75
2021/08/11 08:22:10;;;;;;;24.88;6.35;;;;;;;22.59;55.32;101946.78;5097659;28;20354;-74
2021/08/11 08:24:36;;;;;;;33.80;6.90;;;;;;;22.61;55.45;101950.19;5072943;28;20047;-74
2021/08/11 08:27:02;;;;;;;45.97;7.88;;;;;;;23.03;54.06;101941.75;5093333;28;20063;-74
2021/08/11 08:29:27;;;;;;;44.70;8.00;;;;;;;22.73;55.11;101943.09;5043215;28;20367;-74
2021/08/11 08:31:52;;;;;;;19.60;5.13;;;;;;;22.42;55.32;101943.53;5075167;28;20278;-74
2021/08/11 08:34:17;;;;;;;13.65;5.30;;;;;;;;;;5092770;28;20125;-74
2021/08/11 08:36:43;;;;;;;11.67;5.10;;;;;;;23.54;53.08;101939.56;5098112;28;20039;-74
2021/08/11 08:39:08;;;;;;;15.25;5.43;;;;;;;23.06;53.55;101945.06;5074686;28;20051;-74
2021/08/11 08:41:34;;;;;;;10.85;6.15;;;;;;;23.44;53.65;101938.59;5079721;28;20246;-74
2021/08/11 08:44:00;;;;;;;7.70;4.78;;;;;;;24.11;52.55;101940.41;5048879;28;20012;-74
2021/08/11 08:46:25;;;;;;;10.15;4.50;;;;;;;23.99;51.18;101943.25;5057613;28;20028;-75
2021/08/11 08:48:51;;;;;;;14.95;4.50;;;;;;;23.43;51.75;101941.38;5100224;28;20085;-75
2021/08/11 08:51:16;;;;;;;11.93;3.75;;;;;;;23.12;53.02;101949.06;5064616;28;20032;-74
2021/08/11 08:53:43;;;;;;;15.00;5.38;;;;;;;23.50;52.75;101943.47;5064085;28;20291;-76
2021/08/11 08:56:08;;;;;;;23.17;4.47;;;;;;;23.57;51.81;101947.31;5076122;28;20378;-75
2021/08/11 08:58:34;;;;;;;19.40;5.20;;;;;;;23.89;51.11;101949.31;5062020;28;20366;-75
2021/08/11 09:00:59;;;;;;;15.60;4.43;;;;;;;23.79;51.10;101948.31;5073126;28;20247;-75
2021/08/11 09:03:25;;;;;;;16.60;4.40;;;;;;;24.12;49.82;101949.28;5076879;28;20742;-75
2021/08/11 09:05:50;;;;;;;8.10;4.22;;;;;;;24.85;48.37;101949.56;5061922;28;20043;-74
2021/08/11 09:08:16;;;;;;;17.95;4.20;;;;;;;24.62;48.72;101959.56;5057332;28;20236;-74
2021/08/11 09:10:41;;;;;;;22.30;5.28;;;;;;;24.20;49.21;101960.25;5092022;28;20130;-74
2021/08/11 09:13:20;;;;;;;14.45;4.65;;;;;;;24.27;49.22;101961.44;5073829;28;20220;-74
2021/08/11 09:15:54;;;;;;;9.68;4.47;;;;;;;26.01;46.28;101953.94;5073071;28;20113;-74
2021/08/11 09:18:21;;;;;;;16.40;4.10;;;;;;;24.02;49.90;101959.06;5056970;28;20056;-74
2021/08/11 09:21:10;;;;;;;27.10;4.40;;;;;;;23.49;51.11;101951.59;5073858;28;20522;-74
2021/08/11 09:23:39;;;;;;;13.10;4.47;;;;;;;25.28;46.79;101957.53;5087752;28;20597;-74
2021/08/11 09:26:11;;;;;;;15.48;4.70;;;;;;;24.89;47.23;101959.09;5072654;28;20214;-74
2021/08/11 09:28:38;;;;;;;8.80;3.75;;;;;;;24.89;47.06;101949.22;5077580;28;20031;-74
2021/08/11 09:31:20;;;;;;;13.55;4.63;;;;;;;25.60;45.92;101953.91;5078907;28;20517;-74
2021/08/11 09:33:52;;;;;;;6.35;3.47;;;;;;;24.83;47.74;101952.41;5062931;28;20064;-74
2021/08/11 09:36:17;;;;;;;5.00;3.70;;;;;;;24.93;46.38;101960.50;5054815;28;20040;-74
2021/08/11 09:39:03;;;;;;;8.82;4.30;;;;;;;24.00;49.87;101953.81;5062332;28;20263;-74
2021/08/11 09:41:29;;;;;;;13.15;4.28;;;;;;;24.49;48.39;101949.81;5078330;28;20031;-74
2021/08/11 09:44:10;;;;;;;9.20;3.92;;;;;;;24.67;48.01;101954.69;5080216;28;20323;-73
2021/08/11 09:46:39;;;;;;;8.93;3.90;;;;;;;25.41;44.89;101951.13;5066793;28;20055;-73
2021/08/11 09:49:13;;;;;;;13.13;3.63;;;;;;;24.73;47.59;101953.31;5080948;28;20042;-73
2021/08/11 09:52:01;;;;;;;26.58;4.78;;;;;;;24.66;47.74;101961.00;5061527;28;20361;-74
2021/08/11 09:54:28;;;;;;;14.25;3.60;;;;;;;25.46;45.52;101957.78;5074121;28;20080;-74
2021/08/11 09:56:54;;;;;;;14.32;3.63;;;;;;;26.73;42.62;101960.88;5058760;28;20081;-74
2021/08/11 09:59:19;;;;;;;12.82;4.22;;;;;;;26.52;42.87;101958.28;5076070;28;20035;-75
2021/08/11 10:01:45;;;;;;;13.77;4.22;;;;;;;27.40;41.53;101971.75;5093341;28;20227;-76
2021/08/11 10:04:11;;;;;;;16.95;4.32;;;;;;;26.50;43.41;101968.31;5099431;28;20056;-75
2021/08/11 10:06:41;;;;;;;18.88;4.13;;;;;;;25.81;45.00;101978.03;5066084;28;20038;-75
2021/08/11 10:09:24;;;;;;;10.20;3.50;;;;;;;25.58;45.37;101973.81;5065667;28;20035;-75
2021/08/11 10:11:51;;;;;;;10.30;4.38;;;;;;;25.72;43.96;101976.13;5096952;28;20145;-75
2021/08/11 10:14:17;;;;;;;13.77;3.60;;;;;;;25.04;46.00;101970.34;5058853;28;20346;-76
2021/08/11 10:16:43;;;;;;;9.48;3.67;;;;;;;27.82;40.58;101971.31;5058024;28;20040;-74
2021/08/11 10:19:10;;;;;;;24.90;4.03;;;;;;;27.30;41.11;101977.13;5071570;28;20088;-74
2021/08/11 10:21:42;;;;;;;19.45;3.78;;;;;;;27.51;41.68;101979.63;5041286;28;20016;-75
2021/08/11 10:24:07;;;;;;;16.90;4.25;;;;;;;27.77;40.41;101974.44;5069922;28;20152;-75
2021/08/11 10:26:32;;;;;;;19.13;4.78;;;;;;;28.31;39.28;101979.16;5057007;28;20024;-75
2021/08/11 10:28:58;;;;;;;7.95;4.00;;;;;;;28.64;39.47;101976.81;5074906;28;20053;-75
2021/08/11 10:31:24;;;;;;;11.55;4.65;;;;;;;28.03;40.96;101978.31;5065097;28;20231;-75
2021/08/11 10:33:50;;;;;;;13.98;5.72;;;;;;;27.89;40.62;101985.03;5066370;28;20016;-75
2021/08/11 10:36:15;;;;;;;23.08;4.93;;;;;;;27.46;41.11;101981.06;5078012;28;20063;-75
2021/08/11 10:38:42;;;;;;;5.97;4.78;;;;;;;29.29;39.37;101977.38;5091757;28;20265;-75
2021/08/11 10:41:07;;;;;;;17.63;4.97;;;;;;;26.59;43.12;101983.59;5064494;28;20267;-75
2021/08/11 10:43:34;;;;;;;9.90;4.47;;;;;;;28.07;40.26;101977.00;5060249;28;20039;-74
2021/08/11 10:46:02;;;;;;;13.18;4.82;;;;;;;26.43;43.51;101984.16;5075564;28;20217;-74
2021/08/11 10:48:28;;;;;;;18.02;4.63;;;;;;;26.76;43.30;101976.72;5052401;28;20327;-74
2021/08/11 10:50:53;;;;;;;11.88;4.22;;;;;;;26.36;45.28;101974.09;5061609;28;20039;-74
2021/08/11 10:53:19;;;;;;;14.07;5.18;;;;;;;27.55;43.57;101983.72;5056037;28;20316;-74
2021/08/11 10:55:47;;;;;;;14.25;4.82;;;;;;;27.20;42.36;101978.97;5093244;28;20113;-74
2021/08/11 10:58:41;;;;;;;7.55;4.60;;;;;;;27.30;43.50;101987.88;5096826;28;20050;-74
2021/08/11 11:01:33;;;;;;;10.32;4.65;;;;;;;26.30;44.10;101988.09;5072687;28;20350;-74
2021/08/11 11:04:00;;;;;;;11.75;4.55;;;;;;;26.58;43.52;101986.44;5059336;28;20059;-74
2021/08/11 11:06:54;;;;;;;10.02;4.18;;;;;;;25.41;45.69;101992.22;5081500;28;20044;-74
2021/08/11 11:09:21;;;;;;;12.25;4.38;;;;;;;24.80;47.78;101990.16;5091019;28;20028;-74
2021/08/11 11:11:46;;;;;;;6.03;4.32;;;;;;;25.05;48.17;101993.44;5057336;28;20105;-73
2021/08/11 11:14:43;;;;;;;14.73;4.85;;;;;;;24.88;47.90;101992.19;5088534;28;20387;-73
2021/08/11 11:17:08;;;;;;;10.13;5.43;;;;;;;25.08;47.69;101994.03;5091050;28;20032;-73